Time;durP1;ratioP1;P1;durP2;ratioP2;P2;SDS_P1;SDS_P2;PMS_P1;PMS_P2;Temp;Humidity;BMP_temperature;BMP_pressure;BME280_temperature;BME280_humidity;BME280_pressure;Samples;Min_cycle;Max_cycle;Signal;HPM_P1;HPM_P2
2023/03/13 00:01:26;;;;;;;3.67;1.90;;;11.70;78.80;;;;;;5023942;28;20028;-70
2023/03/13 00:03:54;;;;;;;8.48;2.42;;;11.70;78.90;;;;;;5024713;28;20030;-69
2023/03/13 00:06:21;;;;;;;11.25;2.58;;;11.70;79.50;;;;;;5014023;28;20032;-69
2023/03/13 00:08:47;;;;;;;7.50;2.35;;;11.60;79.70;;;;;;5032131;28;20473;-69
2023/03/13 00:11:14;;;;;;;2.70;1.52;;;11.60;80.10;;;;;;5021804;28;20029;-70
2023/03/13 00:13:41;;;;;;;5.50;1.80;;;11.60;80.20;;;;;;5035797;28;20046;-70
2023/03/13 00:16:12;;;;;;;7.72;1.52;;;11.60;80.20;;;;;;5035888;28;20075;-70
2023/03/13 00:18:38;;;;;;;7.32;1.83;;;11.60;80.20;;;;;;5036108;28;20488;-70
2023/03/13 00:21:08;;;;;;;7.40;2.15;;;11.60;80.30;;;;;;5018185;28;20052;-70
2023/03/13 00:23:36;;;;;;;2.88;1.75;;;11.60;80.80;;;;;;5001771;28;20034;-69
2023/03/13 00:26:08;;;;;;;3.45;2.28;;;11.50;81.10;;;;;;5002950;28;20033;-69
2023/03/13 00:28:35;;;;;;;3.60;2.47;;;11.50;81.40;;;;;;5031198;28;20497;-66
2023/03/13 00:31:06;;;;;;;11.43;2.38;;;11.50;81.50;;;;;;5037911;28;20026;-67
2023/03/13 00:33:37;;;;;;;18.40;2.75;;;11.50;81.40;;;;;;5036581;28;20032;-66
2023/03/13 00:36:08;;;;;;;9.37;3.80;;;11.50;81.60;;;;;;5016822;28;20057;-66
2023/03/13 00:38:34;;;;;;;6.38;2.63;;;11.50;81.60;;;;;;5006871;28;20022;-67
2023/03/13 00:41:01;;;;;;;8.23;2.50;;;11.50;81.60;;;;;;5032160;28;20080;-66
2023/03/13 00:43:27;;;;;;;4.45;2.22;;;11.50;81.80;;;;;;5030930;28;20452;-69
2023/03/13 00:45:53;;;;;;;6.90;1.85;;;11.50;81.70;;;;;;5035060;28;20087;-68
2023/03/13 00:48:19;;;;;;;2.30;1.67;;;11.40;81.90;;;;;;4991713;28;20038;-69
2023/03/13 00:50:45;;;;;;;3.80;1.50;;;11.50;82.00;;;;;;5035257;28;20033;-66
2023/03/13 00:53:10;;;;;;;3.55;1.85;;;11.50;81.90;;;;;;5030762;28;20034;-65
2023/03/13 00:55:36;;;;;;;5.55;2.25;;;11.50;81.80;;;;;;5016586;28;20056;-66
2023/03/13 00:58:02;;;;;;;4.60;2.35;;;11.50;81.80;;;;;;5021174;28;20049;-69
2023/03/13 01:00:27;;;;;;;6.63;2.17;;;11.50;82.30;;;;;;5021624;28;20033;-68
2023/03/13 01:02:53;;;;;;;6.38;1.95;;;11.40;82.80;;;;;;5030228;28;20059;-68
2023/03/13 01:05:19;;;;;;;10.75;1.90;;;11.40;83.00;;;;;;5031157;28;20026;-69
2023/03/13 01:07:44;;;;;;;8.55;2.15;;;11.40;83.30;;;;;;5022836;28;20124;-70
2023/03/13 01:10:11;;;;;;;6.80;2.00;;;11.30;83.50;;;;;;5045043;28;20057;-70
2023/03/13 01:12:36;;;;;;;6.50;2.17;;;11.30;83.70;;;;;;5034828;28;20435;-72
2023/03/13 01:15:02;;;;;;;9.05;1.73;;;11.40;84.00;;;;;;5031069;28;20021;-71
2023/03/13 01:17:29;;;;;;;8.88;2.33;;;11.30;83.90;;;;;;5031145;28;20029;-70
2023/03/13 01:19:56;;;;;;;4.13;1.92;;;11.30;84.50;;;;;;5015085;28;20026;-69
2023/03/13 01:22:21;;;;;;;7.32;2.40;;;11.30;84.30;;;;;;5021448;28;20029;-70
2023/03/13 01:24:51;;;;;;;4.55;2.00;;;11.30;84.30;;;;;;5034159;28;20489;-69
2023/03/13 01:27:17;;;;;;;3.13;2.33;;;11.30;84.30;;;;;;5030563;28;20106;-71
2023/03/13 01:29:43;;;;;;;5.05;1.88;;;11.40;84.30;;;;;;5008091;28;20025;-70
2023/03/13 01:32:09;;;;;;;5.55;1.83;;;11.40;84.90;;;;;;5004798;28;20401;-69
2023/03/13 01:34:34;;;;;;;4.63;1.58;;;11.40;84.80;;;;;;5031748;28;20057;-66
2023/03/13 01:37:00;;;;;;;5.28;1.58;;;11.40;84.80;;;;;;5021487;28;20439;-65
2023/03/13 01:39:26;;;;;;;3.90;1.60;;;11.40;84.70;;;;;;5004978;28;20052;-66
2023/03/13 01:41:51;;;;;;;2.63;1.80;;;11.40;84.80;;;;;;5018439;28;20701;-66
2023/03/13 01:44:23;;;;;;;5.63;2.00;;;11.40;84.80;;;;;;5030628;28;20055;-66
2023/03/13 01:46:49;;;;;;;13.40;1.73;;;11.40;84.90;;;;;;5020623;28;20420;-66
2023/03/13 01:49:18;;;;;;;7.28;1.80;;;11.40;85.00;;;;;;5023486;28;20030;-70
2023/03/13 01:51:52;;;;;;;3.42;1.95;;;11.40;85.20;;;;;;5027691;28;20052;-70
2023/03/13 01:54:48;;;;;;;4.78;2.10;;;11.50;85.60;;;;;;5025729;28;20358;-69
2023/03/13 01:57:28;;;;;;;7.13;2.20;;;11.40;85.90;;;;;;5029288;28;20037;-71
2023/03/13 02:00:06;;;;;;;5.85;1.80;;;11.40;86.20;;;;;;5026459;28;20466;-70
2023/03/13 02:02:33;;;;;;;7.75;2.03;;;11.50;86.40;;;;;;5034172;28;20035;-70
2023/03/13 02:05:02;;;;;;;5.65;1.88;;;11.40;86.60;;;;;;5034456;28;20477;-69
2023/03/13 02:07:34;;;;;;;1.70;1.27;;;11.50;86.60;;;;;;5017120;28;20157;-69
2023/03/13 02:10:00;;;;;;;6.20;2.15;;;11.50;87.00;;;;;;5026365;28;20144;-69
2023/03/13 02:12:34;;;;;;;3.65;1.38;;;11.50;86.90;;;;;;5033132;28;20084;-70
2023/03/13 02:15:08;;;;;;;1.40;1.20;;;11.50;87.00;;;;;;5006286;28;20025;-69
2023/03/13 02:17:35;;;;;;;2.50;1.30;;;11.60;87.00;;;;;;5026237;28;20531;-69
2023/03/13 02:20:03;;;;;;;5.20;1.23;;;11.50;87.20;;;;;;5022276;28;20076;-66
2023/03/13 02:22:34;;;;;;;1.10;1.00;;;11.50;87.60;;;;;;5031465;28;20113;-65
2023/03/13 02:25:29;;;;;;;2.23;1.20;;;11.60;87.70;;;;;;5025806;28;20568;-65
2023/03/13 02:28:03;;;;;;;2.78;1.58;;;11.60;87.70;;;;;;5024115;28;20064;-65
2023/03/13 02:30:30;;;;;;;4.45;1.25;;;11.60;87.80;;;;;;4995472;28;20310;-65
2023/03/13 02:32:56;;;;;;;1.88;1.50;;;11.60;87.80;;;;;;5032322;28;20353;-64
2023/03/13 02:35:22;;;;;;;1.92;1.42;;;11.60;88.10;;;;;;5028103;28;20072;-65
2023/03/13 02:37:58;;;;;;;2.17;1.10;;;11.70;87.90;;;;;;5025879;28;20448;-65
2023/03/13 02:40:28;;;;;;;3.20;1.63;;;11.70;87.80;;;;;;5022919;28;20523;-65
2023/03/13 02:42:57;;;;;;;1.45;0.68;;;11.70;88.00;;;;;;5006502;28;20190;-65
2023/03/13 02:45:22;;;;;;;4.13;1.23;;;11.80;88.00;;;;;;5025037;28;20041;-65
2023/03/13 02:47:48;;;;;;;4.97;1.65;;;11.80;88.00;;;;;;5031256;28;20029;-69
2023/03/13 02:50:14;;;;;;;1.98;1.33;;;11.80;88.20;;;;;;5001884;28;20078;-69
2023/03/13 02:52:52;;;;;;;9.57;1.50;;;11.80;88.50;;;;;;5031954;28;20033;-67
2023/03/13 02:55:23;;;;;;;5.22;2.10;;;11.90;88.60;;;;;;5024801;28;20033;-69
2023/03/13 02:57:49;;;;;;;1.00;0.75;;;11.80;88.90;;;;;;5032696;28;20018;-68
2023/03/13 03:00:16;;;;;;;3.33;1.98;;;11.90;89.10;;;;;;5017369;28;20461;-65
2023/03/13 03:02:42;;;;;;;3.60;1.83;;;11.90;89.30;;;;;;5021194;28;20033;-65
2023/03/13 03:05:09;;;;;;;1.95;1.38;;;11.90;89.20;;;;;;5029389;28;20041;-64
2023/03/13 03:07:35;;;;;;;3.65;1.73;;;11.90;89.10;;;;;;5028817;28;20033;-65
2023/03/13 03:10:01;;;;;;;1.58;1.42;;;11.90;89.70;;;;;;4994870;28;20040;-65
2023/03/13 03:12:26;;;;;;;3.20;1.85;;;12.00;89.70;;;;;;5021240;28;20042;-66
2023/03/13 03:14:52;;;;;;;3.08;1.25;;;12.00;89.70;;;;;;5014188;28;20026;-65
2023/03/13 03:17:18;;;;;;;3.28;1.73;;;12.00;90.00;;;;;;5041508;28;20056;-69
2023/03/13 03:19:44;;;;;;;1.55;1.23;;;12.10;90.10;;;;;;5004076;28;20030;-69
2023/03/13 03:22:09;;;;;;;2.50;1.80;;;12.10;90.10;;;;;;5013448;28;20116;-70
2023/03/13 03:24:35;;;;;;;3.85;1.60;;;12.10;90.30;;;;;;5027141;28;20052;-71
2023/03/13 03:27:01;;;;;;;2.72;1.65;;;12.10;90.20;;;;;;5030825;28;20029;-64
2023/03/13 03:29:26;;;;;;;4.20;2.25;;;12.10;90.40;;;;;;5014327;28;20095;-65
2023/03/13 03:31:52;;;;;;;10.35;2.03;;;12.20;90.50;;;;;;5015090;28;20029;-65
2023/03/13 03:34:19;;;;;;;5.45;1.27;;;12.30;90.50;;;;;;5037867;28;20036;-65
2023/03/13 03:36:45;;;;;;;1.95;1.58;;;12.30;90.60;;;;;;5026943;28;20641;-66
2023/03/13 03:39:10;;;;;;;15.18;3.10;;;12.30;90.60;;;;;;5029769;28;20057;-72
2023/03/13 03:41:36;;;;;;;7.10;1.75;;;12.40;90.70;;;;;;5028184;28;20244;-70
2023/03/13 03:44:03;;;;;;;3.15;1.70;;;12.40;90.70;;;;;;5014528;28;20033;-65
2023/03/13 03:46:28;;;;;;;2.42;1.55;;;12.40;90.70;;;;;;5032373;28;20056;-71
2023/03/13 03:48:54;;;;;;;2.88;1.83;;;12.40;90.70;;;;;;5034650;28;20041;-71
2023/03/13 03:51:20;;;;;;;1.70;1.40;;;12.50;90.80;;;;;;5033262;28;20044;-65
2023/03/13 03:53:46;;;;;;;2.40;1.75;;;12.50;90.80;;;;;;5033507;28;20030;-64
2023/03/13 03:56:12;;;;;;;5.03;2.45;;;12.50;90.90;;;;;;5032059;28;20050;-65
2023/03/13 03:58:37;;;;;;;3.88;1.85;;;12.50;90.80;;;;;;5038086;28;20025;-65
2023/03/13 04:01:03;;;;;;;2.08;1.48;;;12.60;90.80;;;;;;5030208;28;20051;-65
2023/03/13 04:03:29;;;;;;;3.90;1.85;;;12.60;90.70;;;;;;5013626;28;20022;-65
2023/03/13 04:05:55;;;;;;;1.38;1.20;;;12.60;90.80;;;;;;5033968;28;20025;-71
2023/03/13 04:08:21;;;;;;;2.50;1.77;;;12.60;90.90;;;;;;5028938;28;20037;-65
2023/03/13 04:10:47;;;;;;;1.80;1.30;;;12.60;90.80;;;;;;5030727;28;20564;-65
2023/03/13 04:13:13;;;;;;;2.53;1.42;;;12.60;90.90;;;;;;5039682;28;20112;-65
2023/03/13 04:15:39;;;;;;;2.17;1.33;;;12.70;91.10;;;;;;5016789;28;20121;-65
2023/03/13 04:18:05;;;;;;;2.55;1.75;;;12.70;91.10;;;;;;5029603;28;20028;-63
2023/03/13 04:20:31;;;;;;;1.85;1.25;;;12.70;91.10;;;;;;5027349;28;20373;-64
2023/03/13 04:22:57;;;;;;;5.65;1.50;;;12.80;91.10;;;;;;5028787;28;20447;-71
2023/03/13 04:25:22;;;;;;;1.80;1.30;;;12.80;91.00;;;;;;5030079;28;20044;-72
2023/03/13 04:27:48;;;;;;;2.88;1.80;;;12.80;91.00;;;;;;5029871;28;20124;-73
2023/03/13 04:30:14;;;;;;;1.77;1.30;;;12.80;91.00;;;;;;5000169;28;20032;-72
2023/03/13 04:32:40;;;;;;;2.75;1.73;;;12.80;91.10;;;;;;5035952;28;20103;-72
2023/03/13 04:35:06;;;;;;;1.95;1.20;;;12.80;91.20;;;;;;5031498;28;20045;-64
2023/03/13 04:37:32;;;;;;;2.22;1.77;;;12.80;91.20;;;;;;5033119;28;20026;-72
2023/03/13 04:39:58;;;;;;;2.17;1.33;;;12.90;91.20;;;;;;5028827;28;20108;-64
2023/03/13 04:42:23;;;;;;;3.63;2.20;;;12.90;91.20;;;;;;5028776;28;20452;-71
2023/03/13 04:44:49;;;;;;;3.28;1.67;;;12.90;91.20;;;;;;5017037;28;20021;-65
2023/03/13 04:47:15;;;;;;;2.60;1.75;;;12.90;91.20;;;;;;5035005;28;20414;-71
2023/03/13 04:49:40;;;;;;;2.60;1.60;;;13.00;91.20;;;;;;5029808;28;20104;-72
2023/03/13 04:52:06;;;;;;;2.75;1.77;;;13.00;91.10;;;;;;5031263;28;20025;-72
2023/03/13 04:54:32;;;;;;;1.95;1.25;;;13.00;91.20;;;;;;5031839;28;20041;-72
2023/03/13 04:56:57;;;;;;;3.03;1.60;;;13.10;91.20;;;;;;5033294;28;20033;-65
2023/03/13 04:59:23;;;;;;;2.67;1.60;;;13.10;91.10;;;;;;5011435;28;20032;-72
2023/03/13 05:01:49;;;;;;;4.25;2.05;;;13.10;91.10;;;;;;5014185;28;20025;-72
2023/03/13 05:04:14;;;;;;;1.85;1.23;;;13.20;91.20;;;;;;5030176;28;20041;-71
2023/03/13 05:06:40;;;;;;;3.72;1.80;;;13.20;91.10;;;;;;5016066;28;20060;-65
2023/03/13 05:09:06;;;;;;;2.92;2.13;;;13.30;91.00;;;;;;5025819;28;20041;-64
2023/03/13 05:11:32;;;;;;;3.25;1.90;;;13.30;91.00;;;;;;5015742;28;20029;-72
2023/03/13 05:14:23;;;;;;;4.80;1.70;;;13.30;91.00;;;;;;5011261;28;20038;-72
2023/03/13 05:16:48;;;;;;;4.50;2.25;;;13.30;91.00;;;;;;5004353;28;20459;-72
2023/03/13 05:19:14;;;;;;;2.30;1.80;;;13.30;90.90;;;;;;5017838;28;20157;-71
2023/03/13 05:21:39;;;;;;;2.47;1.58;;;13.30;90.90;;;;;;5028138;28;20060;-71
2023/03/13 05:24:06;;;;;;;2.50;1.65;;;13.40;90.80;;;;;;5003458;28;20041;-71
2023/03/13 05:26:32;;;;;;;2.85;1.95;;;13.40;90.80;;;;;;5012191;28;20555;-72
2023/03/13 05:28:58;;;;;;;3.83;2.22;;;13.40;90.80;;;;;;5014147;28;20030;-71
2023/03/13 05:31:23;;;;;;;2.15;1.33;;;13.40;90.80;;;;;;5015366;28;20040;-65
2023/03/13 05:33:49;;;;;;;4.55;2.45;;;13.40;90.70;;;;;;5031771;28;20557;-64
2023/03/13 05:36:15;;;;;;;3.28;2.03;;;13.40;90.70;;;;;;5027860;28;20041;-72
2023/03/13 05:38:40;;;;;;;2.25;1.45;;;13.50;90.70;;;;;;5039011;28;20018;-72
2023/03/13 05:41:06;;;;;;;2.83;1.77;;;13.50;90.60;;;;;;5028814;28;20109;-72
2023/03/13 05:43:32;;;;;;;6.32;1.85;;;13.50;90.50;;;;;;5008749;28;20369;-72
2023/03/13 05:45:57;;;;;;;4.05;2.33;;;13.50;90.50;;;;;;5025728;28;20036;-72
2023/03/13 05:48:23;;;;;;;2.25;1.98;;;13.60;90.40;;;;;;5017480;28;20047;-72
2023/03/13 05:50:49;;;;;;;3.10;1.52;;;13.60;90.40;;;;;;5010121;28;20025;-72
2023/03/13 05:53:14;;;;;;;2.67;2.00;;;13.60;90.30;;;;;;5032979;28;20473;-72
2023/03/13 05:55:41;;;;;;;3.15;1.60;;;13.60;90.30;;;;;;5042423;28;20404;-73
2023/03/13 05:58:07;;;;;;;2.80;1.90;;;13.60;90.20;;;;;;5026044;28;20047;-71
2023/03/13 06:00:32;;;;;;;2.45;2.05;;;13.70;90.20;;;;;;5043228;28;20025;-71
2023/03/13 06:02:58;;;;;;;2.75;1.83;;;13.70;90.20;;;;;;5030279;28;20061;-72
2023/03/13 06:05:24;;;;;;;1.67;1.35;;;13.70;90.10;;;;;;5035884;28;20116;-66
2023/03/13 06:07:50;;;;;;;4.25;1.80;;;13.70;90.10;;;;;;5038732;28;20051;-65
2023/03/13 06:10:15;;;;;;;1.90;1.70;;;13.80;90.00;;;;;;5028899;28;20046;-65
2023/03/13 06:12:41;;;;;;;4.30;1.30;;;13.80;89.90;;;;;;5034822;28;20038;-65
2023/03/13 06:15:08;;;;;;;1.58;1.20;;;13.80;89.80;;;;;;5010645;28;20028;-65
2023/03/13 06:17:35;;;;;;;2.45;1.80;;;13.90;89.70;;;;;;5031068;28;20048;-71
2023/03/13 06:20:01;;;;;;;2.38;2.13;;;13.90;89.50;;;;;;5031121;28;20464;-65
2023/03/13 06:22:27;;;;;;;2.80;1.58;;;13.90;89.40;;;;;;5030393;28;20034;-65
2023/03/13 06:24:52;;;;;;;2.33;1.52;;;13.90;89.10;;;;;;5022398;28;20175;-64
2023/03/13 06:27:18;;;;;;;2.88;1.67;;;13.90;89.10;;;;;;5027118;28;20539;-71
2023/03/13 06:29:44;;;;;;;4.85;1.50;;;14.00;88.80;;;;;;5024714;28;20556;-72
2023/03/13 06:32:10;;;;;;;2.88;1.77;;;14.00;88.60;;;;;;5008246;28;20038;-72
2023/03/13 06:34:36;;;;;;;2.55;1.15;;;14.00;88.40;;;;;;5009383;28;20053;-64
2023/03/13 06:37:02;;;;;;;1.70;1.40;;;14.00;88.20;;;;;;5024651;28;20021;-65
2023/03/13 06:39:28;;;;;;;1.30;1.20;;;14.00;88.00;;;;;;5009319;28;20022;-72
2023/03/13 06:41:54;;;;;;;3.20;1.65;;;14.00;87.90;;;;;;5003473;28;20492;-71
2023/03/13 06:44:19;;;;;;;4.80;1.60;;;14.10;87.70;;;;;;5019673;28;20120;-72
2023/03/13 06:46:45;;;;;;;2.03;1.38;;;14.00;87.50;;;;;;5022038;28;20037;-72
2023/03/13 06:49:11;;;;;;;3.20;1.30;;;14.10;87.40;;;;;;5020906;28;20037;-72
2023/03/13 06:51:36;;;;;;;3.83;1.88;;;14.10;87.10;;;;;;5021230;28;20037;-70
2023/03/13 06:54:02;;;;;;;2.05;1.35;;;14.10;86.90;;;;;;5016216;28;20492;-67
2023/03/13 06:56:28;;;;;;;14.73;1.73;;;14.20;86.60;;;;;;5030645;28;20040;-67
2023/03/13 06:58:53;;;;;;;2.78;1.85;;;14.20;86.40;;;;;;5008959;28;20028;-69
2023/03/13 07:01:19;;;;;;;4.43;2.00;;;14.20;86.20;;;;;;5029693;28;20034;-68
2023/03/13 07:03:47;;;;;;;6.20;2.30;;;14.20;86.00;;;;;;5020814;28;20493;-67
2023/03/13 07:06:13;;;;;;;1.65;1.33;;;14.20;85.60;;;;;;5031420;28;20021;-67
2023/03/13 07:08:39;;;;;;;4.13;2.00;;;14.30;85.40;;;;;;5033039;28;20028;-68
2023/03/13 07:11:07;;;;;;;1.88;1.27;;;14.30;85.30;;;;;;5007696;28;20047;-69
2023/03/13 07:13:34;;;;;;;3.50;1.70;;;14.30;85.00;;;;;;5008390;28;20492;-69
2023/03/13 07:16:03;;;;;;;3.42;2.20;;;14.30;84.60;;;;;;5003710;28;20104;-69
2023/03/13 07:18:29;;;;;;;3.58;1.45;;;14.30;84.50;;;;;;5008210;28;20025;-69
2023/03/13 07:20:56;;;;;;;2.75;1.65;;;14.40;84.10;;;;;;5032174;28;20105;-69
2023/03/13 07:23:24;;;;;;;3.40;1.45;;;14.40;84.00;;;;;;5016960;28;20026;-68
2023/03/13 07:25:54;;;;;;;1.70;1.38;;;14.40;83.90;;;;;;5011068;28;20045;-68
2023/03/13 07:28:20;;;;;;;2.88;1.15;;;14.50;83.90;;;;;;5023773;28;20040;-69
2023/03/13 07:30:46;;;;;;;4.15;1.92;;;14.50;83.80;;;;;;5026137;28;20419;-70
2023/03/13 07:33:11;;;;;;;3.75;1.52;;;14.50;83.60;;;;;;5031479;28;20063;-75
2023/03/13 07:35:37;;;;;;;3.75;1.45;;;14.50;83.40;;;;;;5015651;28;20113;-69
2023/03/13 07:38:03;;;;;;;1.98;1.20;;;14.60;83.50;;;;;;5024664;28;20457;-70
2023/03/13 07:40:28;;;;;;;3.28;1.33;;;14.60;83.30;;;;;;5014447;28;20440;-74
2023/03/13 07:42:54;;;;;;;4.22;1.58;;;14.60;83.10;;;;;;5012287;28;20421;-72
2023/03/13 07:45:19;;;;;;;2.17;1.27;;;14.60;82.80;;;;;;5029119;28;20381;-74
2023/03/13 07:47:45;;;;;;;2.95;1.05;;;14.60;82.80;;;;;;5011047;28;20037;-69
2023/03/13 07:50:11;;;;;;;5.50;1.42;;;14.70;82.80;;;;;;5005031;28;20029;-67
2023/03/13 07:52:36;;;;;;;2.28;1.27;;;14.70;82.80;;;;;;5012298;28;20026;-69
2023/03/13 07:55:02;;;;;;;1.08;0.75;;;14.70;82.60;;;;;;5022354;28;20072;-68
2023/03/13 07:57:28;;;;;;;2.38;1.48;;;14.70;82.60;;;;;;5008580;28;20030;-67
2023/03/13 07:59:53;;;;;;;3.40;1.55;;;14.70;82.60;;;;;;4994668;28;20361;-68
2023/03/13 08:02:19;;;;;;;0.88;0.70;;;14.70;82.50;;;;;;5013948;28;20034;-67
2023/03/13 08:04:45;;;;;;;1.92;1.20;;;14.70;82.50;;;;;;5024760;28;20037;-67
2023/03/13 08:07:11;;;;;;;2.13;0.95;;;14.70;82.60;;;;;;5032498;28;20041;-67
2023/03/13 08:09:37;;;;;;;2.30;1.27;;;14.70;82.90;;;;;;5027911;28;20034;-67
2023/03/13 08:12:03;;;;;;;1.27;0.88;;;14.70;83.00;;;;;;5035715;28;20038;-74
2023/03/13 08:14:29;;;;;;;3.08;1.08;;;14.70;83.10;;;;;;5029020;28;20021;-68
2023/03/13 08:16:54;;;;;;;1.65;1.23;;;14.70;83.00;;;;;;5035087;28;20025;-65
2023/03/13 08:19:20;;;;;;;0.80;0.75;;;14.70;83.20;;;;;;5022610;28;20028;-66
2023/03/13 08:21:46;;;;;;;5.63;1.20;;;14.60;83.50;;;;;;5026769;28;20477;-67
2023/03/13 08:24:12;;;;;;;4.82;1.00;;;14.60;83.70;;;;;;5021130;28;20108;-70
2023/03/13 08:26:40;;;;;;;3.22;1.15;;;14.60;83.80;;;;;;5031463;28;20415;-72
2023/03/13 08:29:09;;;;;;;1.23;1.00;;;14.60;83.80;;;;;;5033081;28;20052;-68
2023/03/13 08:31:46;;;;;;;2.25;0.77;;;14.70;84.00;;;;;;5030290;28;20018;-68
2023/03/13 08:34:13;;;;;;;2.85;1.05;;;14.70;84.00;;;;;;5006529;28;20033;-67
2023/03/13 08:36:39;;;;;;;3.83;1.63;;;14.80;83.80;;;;;;5027749;28;20021;-73
2023/03/13 08:39:11;;;;;;;1.30;1.00;;;14.80;83.40;;;;;;5032408;28;20388;-69
2023/03/13 08:41:39;;;;;;;1.65;1.30;;;14.90;83.00;;;;;;5011496;28;20022;-70
2023/03/13 08:44:05;;;;;;;2.25;1.00;;;14.90;82.70;;;;;;5004071;28;20355;-69
2023/03/13 08:46:34;;;;;;;5.40;1.38;;;14.90;82.80;;;;;;5022769;28;20034;-69
2023/03/13 08:49:00;;;;;;;5.55;1.67;;;14.90;82.70;;;;;;5028450;28;20035;-72
2023/03/13 08:51:27;;;;;;;1.10;0.90;;;14.90;82.70;;;;;;5011087;28;20112;-66
2023/03/13 08:53:57;;;;;;;1.10;1.00;;;14.90;83.00;;;;;;5026034;28;20037;-65
2023/03/13 08:56:29;;;;;;;4.68;0.80;;;14.90;83.20;;;;;;5025052;28;20028;-70
2023/03/13 08:58:57;;;;;;;4.85;1.38;;;14.90;83.30;;;;;;5027021;28;20037;-69
2023/03/13 09:01:25;;;;;;;3.65;0.90;;;14.90;83.50;;;;;;5029479;28;20022;-63
2023/03/13 09:03:51;;;;;;;1.55;0.98;;;14.90;83.10;;;;;;5025973;28;20504;-64
2023/03/13 09:06:17;;;;;;;1.80;1.10;;;14.90;82.90;;;;;;5014998;28;20030;-64
2023/03/13 09:08:43;;;;;;;5.25;1.13;;;15.00;82.00;;;;;;5008691;28;20307;-63
2023/03/13 09:11:15;;;;;;;5.15;1.40;;;15.10;81.20;;;;;;5006791;28;20397;-63
2023/03/13 09:13:44;;;;;;;3.83;0.98;;;15.30;80.80;;;;;;5025670;28;20080;-69
2023/03/13 09:16:15;;;;;;;1.80;0.88;;;15.40;80.30;;;;;;5025509;28;20503;-70
2023/03/13 09:18:41;;;;;;;3.30;1.52;;;15.60;80.40;;;;;;5020414;28;20026;-70
2023/03/13 09:21:13;;;;;;;1.52;1.00;;;15.70;78.40;;;;;;5006116;28;20489;-69
2023/03/13 09:23:39;;;;;;;1.60;1.05;;;15.80;78.20;;;;;;5025657;28;20034;-69
2023/03/13 09:26:05;;;;;;;1.17;1.02;;;15.70;77.60;;;;;;4998555;28;20060;-70
2023/03/13 09:28:34;;;;;;;2.00;0.98;;;15.70;77.90;;;;;;5010174;28;20040;-69
2023/03/13 09:31:11;;;;;;;5.82;1.08;;;15.70;77.10;;;;;;5022743;28;20029;-64
2023/03/13 09:33:37;;;;;;;1.95;1.10;;;15.80;77.30;;;;;;5007338;28;20022;-64
2023/03/13 09:36:03;;;;;;;6.15;1.40;;;15.80;76.90;;;;;;5034142;28;20022;-63
2023/03/13 09:38:29;;;;;;;0.73;0.70;;;15.80;76.10;;;;;;5032879;28;20489;-64
2023/03/13 09:41:00;;;;;;;1.38;1.08;;;15.90;76.00;;;;;;5022054;28;20036;-63
2023/03/13 09:43:39;;;;;;;3.00;1.23;;;15.90;75.70;;;;;;5024612;28;20044;-70
2023/03/13 09:46:22;;;;;;;1.45;0.50;;;16.00;75.30;;;;;;5032798;28;20171;-71
2023/03/13 09:49:00;;;;;;;1.85;0.73;;;16.10;75.10;;;;;;5025485;28;20032;-70
2023/03/13 09:51:35;;;;;;;0.52;0.52;;;16.10;74.50;;;;;;5029323;28;20083;-64
2023/03/13 09:54:05;;;;;;;2.08;1.02;;;16.10;74.60;;;;;;5024555;28;20032;-70
2023/03/13 09:56:39;;;;;;;1.00;0.80;;;16.10;74.60;;;;;;5022961;28;20029;-71
2023/03/13 09:59:32;;;;;;;1.05;0.75;;;16.10;75.00;;;;;;5004202;28;20436;-71
2023/03/13 10:01:59;;;;;;;1.15;1.00;;;16.10;75.10;;;;;;5020227;28;20563;-70
2023/03/13 10:04:38;;;;;;;2.47;0.82;;;16.00;75.20;;;;;;5026542;28;20068;-70
2023/03/13 10:07:09;;;;;;;1.65;0.85;;;16.00;75.00;;;;;;5018746;28;20041;-65
2023/03/13 10:09:36;;;;;;;2.83;0.90;;;16.00;75.40;;;;;;5018895;28;20025;-64
2023/03/13 10:12:22;;;;;;;1.65;0.93;;;16.00;75.40;;;;;;5012648;28;20051;-70
2023/03/13 10:14:56;;;;;;;1.27;0.75;;;16.10;75.20;;;;;;5018626;28;20025;-70
2023/03/13 10:17:38;;;;;;;0.65;0.65;;;16.20;75.10;;;;;;5026756;28;20320;-70
2023/03/13 10:20:23;;;;;;;2.22;1.05;;;16.20;74.60;;;;;;5025328;28;20070;-75
2023/03/13 10:23:20;;;;;;;1.48;0.70;;;16.20;74.50;;;;;;5025845;28;20403;-74
2023/03/13 10:25:46;;;;;;;1.95;1.02;;;16.20;74.30;;;;;;5009607;28;20049;-65
2023/03/13 10:28:14;;;;;;;0.75;0.70;;;16.30;74.30;;;;;;4997053;28;20484;-68
2023/03/13 10:30:47;;;;;;;4.38;0.70;;;16.50;73.60;;;;;;5027445;28;20023;-71
2023/03/13 10:33:12;;;;;;;1.13;0.80;;;16.60;72.90;;;;;;5026349;28;20041;-64
2023/03/13 10:35:43;;;;;;;1.10;0.77;;;16.60;72.50;;;;;;5036507;28;20025;-67
2023/03/13 10:38:21;;;;;;;1.15;0.70;;;16.60;71.80;;;;;;5029774;28;20033;-73
2023/03/13 10:41:37;;;;;;;2.67;0.73;;;16.60;72.10;;;;;;5028467;28;20048;-67
2023/03/13 10:44:07;;;;;;;2.88;1.05;;;16.70;72.00;;;;;;4997301;28;20055;-68
2023/03/13 10:46:38;;;;;;;1.08;0.65;;;16.70;71.00;;;;;;5031899;28;20025;-66
2023/03/13 10:49:13;;;;;;;6.23;1.07;;;16.70;70.60;;;;;;5028841;28;20032;-66
2023/03/13 10:51:43;;;;;;;3.63;1.30;;;16.70;70.40;;;;;;5023369;28;20049;-66
2023/03/13 10:54:21;;;;;;;4.28;1.90;;;16.80;70.50;;;;;;5030029;28;20040;-67
2023/03/13 10:56:48;;;;;;;1.95;0.77;;;16.90;70.70;;;;;;5032289;28;20013;-67
2023/03/13 10:59:25;;;;;;;2.47;0.70;;;16.90;70.70;;;;;;5031768;28;20551;-68
2023/03/13 11:01:52;;;;;;;4.22;0.93;;;16.90;69.70;;;;;;5009807;28;20030;-69
2023/03/13 11:04:31;;;;;;;2.85;1.15;;;17.00;69.70;;;;;;5024520;28;20037;-68
2023/03/13 11:07:15;;;;;;;1.00;0.70;;;17.10;69.30;;;;;;5029494;28;20052;-65
2023/03/13 11:09:40;;;;;;;1.30;1.10;;;17.10;68.90;;;;;;5020016;28;20073;-66
2023/03/13 11:12:19;;;;;;;0.82;0.60;;;17.10;67.90;;;;;;5015377;28;20033;-67
2023/03/13 11:14:45;;;;;;;2.92;1.20;;;17.30;67.90;;;;;;5009312;28;20038;-67
2023/03/13 11:17:30;;;;;;;0.70;0.60;;;17.50;67.80;;;;;;5027407;28;20051;-66
2023/03/13 11:20:24;;;;;;;1.10;0.93;;;17.70;66.90;;;;;;5013075;28;20021;-70
2023/03/13 11:22:58;;;;;;;0.80;0.77;;;17.70;65.70;;;;;;5028718;28;20508;-73
2023/03/13 11:25:48;;;;;;;1.40;0.93;;;17.70;65.50;;;;;;5030180;28;20034;-68
2023/03/13 11:28:20;;;;;;;2.05;0.90;;;17.80;66.70;;;;;;5032650;28;20412;-69
2023/03/13 11:31:06;;;;;;;1.15;0.65;;;18.00;65.20;;;;;;5027224;28;20025;-68
2023/03/13 11:33:52;;;;;;;0.73;0.65;;;18.00;65.20;;;;;;5023827;28;20439;-67
2023/03/13 11:36:46;;;;;;;0.95;0.65;;;18.10;64.50;;;;;;5027864;28;20049;-67
2023/03/13 11:39:46;;;;;;;0.80;0.55;;;18.40;64.20;;;;;;5018768;28;20037;-64
2023/03/13 11:42:30;;;;;;;2.10;0.75;;;18.40;63.30;;;;;;5006846;28;20124;-69
2023/03/13 11:45:02;;;;;;;0.47;0.40;;;18.50;63.30;;;;;;5027950;28;20327;-69
2023/03/13 11:47:43;;;;;;;0.50;0.50;;;18.90;62.80;;;;;;5028049;28;20037;-69
2023/03/13 11:50:27;;;;;;;1.95;0.85;;;18.90;62.20;;;;;;5011637;28;20128;-69
2023/03/13 11:53:25;;;;;;;1.17;0.93;;;19.00;61.70;;;;;;5026160;28;20033;-69
2023/03/13 11:56:09;;;;;;;0.77;0.40;;;19.00;61.50;;;;;;5025914;28;20014;-68
2023/03/13 11:58:48;;;;;;;0.68;0.60;;;18.90;62.20;;;;;;5022793;28;20506;-69
2023/03/13 12:01:17;;;;;;;0.65;0.60;;;18.90;62.10;;;;;;5029551;28;20041;-69
2023/03/13 12:04:24;;;;;;;1.73;0.68;;;19.00;61.80;;;;;;5018943;28;20492;-69
2023/03/13 12:07:14;;;;;;;1.35;0.63;;;19.20;61.20;;;;;;4926034;29;20044;-63
2023/03/13 12:09:52;;;;;;;0.73;0.68;;;19.40;60.30;;;;;;4973273;28;20037;-69
2023/03/13 12:12:43;;;;;;;1.50;0.47;;;19.20;59.50;;;;;;5031111;28;20079;-69
2023/03/13 12:15:18;;;;;;;0.50;0.47;;;19.00;60.20;;;;;;5028753;28;20048;-70
2023/03/13 12:18:05;;;;;;;2.63;0.68;;;18.90;60.80;;;;;;5034651;28;20051;-70
2023/03/13 12:20:37;;;;;;;0.68;0.40;;;18.90;60.00;;;;;;5014065;28;20029;-65
2023/03/13 12:23:12;;;;;;;0.82;0.70;;;18.80;59.60;;;;;;5027386;28;20057;-65
2023/03/13 12:26:06;;;;;;;2.10;0.40;;;18.70;58.70;;;;;;5025933;28;20044;-64
2023/03/13 12:28:47;;;;;;;1.45;0.65;;;18.60;59.80;;;;;;5025796;28;20500;-63
2023/03/13 12:31:25;;;;;;;2.00;1.35;;;18.60;59.90;;;;;;5028342;28;20025;-65
2023/03/13 12:33:55;;;;;;;1.02;0.55;;;18.70;60.30;;;;;;5025793;28;20077;-63
2023/03/13 12:36:46;;;;;;;3.03;0.80;;;19.00;59.40;;;;;;5016036;28;20034;-65
2023/03/13 12:39:46;;;;;;;4.80;0.90;;;19.00;58.70;;;;;;5016215;28;20080;-70
2023/03/13 12:42:33;;;;;;;0.75;0.75;;;18.80;59.30;;;;;;5033501;28;20033;-70
2023/03/13 12:44:59;;;;;;;1.10;0.73;;;18.70;59.70;;;;;;5036369;28;20096;-64
2023/03/13 12:47:47;;;;;;;2.05;0.70;;;18.60;60.10;;;;;;5030811;28;20537;-65
2023/03/13 12:50:50;;;;;;;2.42;1.05;;;18.50;60.20;;;;;;5025179;28;20029;-64
2023/03/13 12:53:48;;;;;;;0.75;0.70;;;18.50;60.90;;;;;;5030316;28;20029;-63
2023/03/13 12:56:37;;;;;;;1.40;1.00;;;18.70;60.80;;;;;;5037184;28;20017;-64
2023/03/13 12:59:07;;;;;;;0.77;0.57;;;19.20;60.00;;;;;;5016476;28;20044;-65
2023/03/13 13:01:40;;;;;;;1.85;0.77;;;19.40;58.90;;;;;;5027048;28;20373;-65